Cherry Valley, IL

5:42 AM CST on March 06, 2015 (GMT -0600)
Cherry Vale North | Change Station
CLOSE
Current Station
Personal Weather Station
Location: Rockford, IL
Elevation: 828 ft
Nearby Weather Stations

Elev 828 ft 42.26 °N, 88.97 °W | Updated 50 seconds ago

Mostly Cloudy
Mostly Cloudy
-0.8 °F
Feels Like -1 °F
N
0.0
Wind Variable Wind from SSE
Gusts 0.0 mph

Today
High -- | Low -- °F
--% Chance of Precip.
Yesterday
High -- | Low -- °F
Precip. -- in
6:23 AM 5:51 PM
Full, 100% visible
Pressure 30.44 in
Visibility 10.0 miles
Clouds Scattered Clouds 14000 ft
Overcast 20000 ft
Windchill -1 °F
Dew Point -4 °F
Humidity 84%
Rainfall in
Snow Depth Not available.
UV 0.0 out of 12
Pollen .50 out of 12
Air Quality Not available.
Flu Activity Not available.
METAR KRFD 061054Z 15003KT 10SM SCT140 OVC200 M18/M22 A3044

More Conditions Fewer Conditions

Pressure 30.44 in
Visibility 10.0 miles
Clouds Scattered Clouds 14000 ft
Overcast 20000 ft
Windchill -1 °F
Dew Point -4 °F
Humidity 84%
Rainfall in
Snow Depth Not available.
UV 0.0 out of 12
Pollen .50 out of 12
Air Quality Not available.
Flu Activity Not available.
METAR KRFD 061054Z 15003KT 10SM SCT140 OVC200 M18/M22 A3044

More Conditions Fewer Conditions

10-Day Weather Forecast

Almanac

Astronomy

Mar. 06, 2015 Rise Set
Actual Time
Civil Twilight
Nautical Twilight
Astronomical Twilight
Moon
Length of Visible Light
Length of Day
Tomorrow will be .
, % of the Moon is Illuminated

Today's Extremes

State Highs State Lows

Community

WunderPhotos

Upload Photos

1,803,228 photos uploaded!

WunderBlogs® & News

Nearby

Air Quality

  Air Quality AQ Index Pollutant
Not available.

Snow Depth

Station Depth Elevation

Earthquake Activity

City Distance Mag. Time & Date
Minimum magnitude displayed is 2.5.

Coastal Water Temperatures

Place Temperature

Nearby Weather Stations